Appleton, Minnesota
Current Conditions -  °F | °C
As of 9:34 PM on Friday 19 Dec 2014 (Local Time) from KAQP Reporting Station
Overcast Overcast  
Wind Chill: 26°   Ceiling: 900
Heat Index: 32°   Visibility: 7mi
Dew Point: 28°   Wind: 7mph
Humidity: 87%   Direction: 190°S
Pressure: 30.06"   Gusts: NA
Location:  45.2°N, 96.02°W
Report Text: KAQP 200334Z AUTO 19006KT 7SM OVC009 00/M02 A3006 RMK AO2
Loading
Personal Weather Stations






























Interactive Weather Map New forecast layout! Learn more

10-Day Weather Forecast

Advertisements
Track Severe Weather on mobile